AirNav   Air Wisconsin Up To $57,000 Bonus
 
 961 users online  

NC64 Barringer Field Airport
Kannapolis, North Carolina, USA

GOING TO KANNAPOLIS?


FAA INFORMATION EFFECTIVE 01 DECEMBER 2022

Location

FAA Identifier: NC64
Lat/Long: 35-31-40.0000N 080-41-48.0000W
35-31.666667N 080-41.800000W
35.5277778,-80.6966667
(estimated)
Elevation: 800 ft. / 244 m (estimated)
Variation: 06W (1995)
From city: 4 miles NW of KANNAPOLIS, NC
Time zone: UTC -5 (UTC -4 during Daylight Saving Time)
Zip code: 28081

Airport Operations

Airport use: Private use. Permission required prior to landing
Activation date: 05/1999
Control tower: no
ARTCC: ATLANTA CENTER
FSS: RALEIGH FLIGHT SERVICE STATION
Attendance: UNATNDD
Wind indicator: yes
Segmented circle: no

Airport Communications

WX AWOS-3 at JQF (8 nm S): 133.675 (704-785-2145)
WX AWOS-3 at RUQ (11 nm NE): 118.175 (704-637-6197)
WX AWOS-3 at SVH (19 nm NW): 119.225 (704-873-1978)

Nearby radio navigation aids

VOR radial/distance  VOR name  Freq  Var
CLTr037/23.8CHARLOTTE VOR/DME115.0005W
BZMr134/33.5BARRETTS MOUNTAIN VOR/DME113.7506W

 
NDB name  Hdg/Dist  Freq  Var  ID
STONIA054/30.326006WGHJ --. .... .---

Airport Services

Runway Information

Runway 10/28

Dimensions: 2000 x 80 ft. / 610 x 24 m
Surface: turf
RUNWAY 10  RUNWAY 28
Traffic pattern: leftleft
Obstructions: 70 ft. pline, 1500 ft. from runway25 ft. trees, 100 ft. from runway

Airport Ownership and Management from official FAA records

Ownership: Privately-owned
Owner: JOHN BARRINGER
235 MISTY LANE
KANNAPOLIS, NC 28081
Phone 704-786-3375
Manager: JOHN BARRINGER
235 MISTY LANE
KANNAPOLIS, NC 28081
Phone 704-309-4634

Airport Operational Statistics

Aircraft based on the field: 3
Single engine airplanes: 3
    

Additional Remarks

FOR CD CTC CHARLOTTE APCH AT 704-359-0241.

Instrument Procedures

There are no published instrument procedures at NC64.

Some nearby airports with instrument procedures:

KJQF - Concord-Padgett Regional Airport (8 nm S)
KRUQ - Mid-Carolina Regional Airport (11 nm NE)
14A - Lake Norman Airpark (11 nm NW)
KSVH - Statesville Regional Airport (19 nm NW)
KCLT - Charlotte/Douglas International Airport (23 nm SW)
 
Loc | Ops | Rwys | IFR | FBO | Links
Com | Nav | Svcs | Stats | Notes
Area around NC64 (Barringer Field Airport)
 
Road maps at: MapQuest Bing Google
 
Aerial photo
No photo
 
Sectional chart

 
Airport distance calculator
Flying to Barringer Field Airport? Find the distance to fly.

From to NC64

Sunrise and sunset
Times for 06-Dec-2022
 Local
(UTC-5)
 Zulu
(UTC)
Morning civil twilight06:5111:51
Sunrise07:1912:19
Sunset17:0922:09
Evening civil twilight17:3722:37

Current date and time
Zulu (UTC)  07-Dec-2022 04:24:03
Local (UTC-5)  06-Dec-2022 23:24:03
 
METAR
KJQF 
9nm S 
070350Z 00000KT 1/2SM BR OVC002 10/10 A3028
KRUQ 
11nm NE 
070355Z AUTO 00000KT 3/4SM BR OVC004 09/08 A3026 RMK AO2 T00860084
KSVH 
18nm NW 
070355Z AUTO 00000KT 1/4SM FG OVC002 08/08 A3024 RMK AO2 T00830080
TAF
KCLT 
22nm SW 
070153Z 0702/0806 VRB03KT 1/2SM -DZ FG OVC002 FM070400 VRB02KT 1/4SM -RADZ FG OVC001 FM071600 21004KT 1SM -DZ BR OVC003 FM071800 23005KT 5SM BR OVC006 FM072300 23004KT 6SM BR SCT006 BKN012
NOTAMs
Click for the latest NOTAMs
NOTAMs are issued by the DoD/FAA and will open in a separate window not controlled by AirNav.

 

 
 

Would you like to see your business listed on this page?

 If your business provides an interesting product or service to pilots, flight crews, aircraft, or users of the Barringer Field Airport, you should consider listing it here.  To start the listing process, click on the button below
 
Add a business
 

Other Pages about Barringer Field Airport

Update a link
 
Copyright © AirNav, LLC. All rights reserved. Privacy Policy  Contact